Terminal Aerodrome Forecast
Issued by NWS

Home | Current Version | Previous Version | Graphics & Text | Print | Product List | Glossary On
Versions: 1 2 3 4 5 6 7 8 9 10 11 12 13 14 15 16 17 18 19 20 21 22
000
FTUS43 KICT 160940 AAA
TAFRSL
TAF AMD
KRSL 160940Z 1610/1706 33017G22KT P6SM OVC022
     FM161200 34013KT P6SM SCT020
     FM162000 01009KT P6SM BKN250
     FM162300 07005KT P6SM BKN250=

USA.gov is the U.S. government's official web portal to all federal, state and local government web resources and services.